Terminal Aerodrome Forecast
Issued by NWS

Home | Current Version | Previous Version | Text Only | Print | Product List | Glossary On
Versions: 1 2 3 4 5 6 7 8 9 10 11 12 13 14 15 16 17 18
000
FTUS44 KMAF 300001 AAB
TAFFST
TAF AMD
KFST 300001Z 3000/3024 31005KT P6SM FEW050 SCT060 OVC070
      TEMPO 3000/3004 VRB15G25KT 6SM TSRA BR OVC045CB
     FM300400 35005KT P6SM OVC004
     FM301600 06006KT P6SM SCT015 BKN130 OVC250=

USA.gov is the U.S. government's official web portal to all federal, state and local government web resources and services.